Time;durP1;ratioP1;P1;durP2;ratioP2;P2;SDS_P1;SDS_P2;PMS_P1;PMS_P2;Temp;Humidity;BMP_temperature;BMP_pressure;BME280_temperature;BME280_humidity;BME280_pressure;Samples;Min_cycle;Max_cycle;Signal;HPM_P1;HPM_P2
2021/03/23 00:01:09;;;;;;;6.13;3.45;;;3.70;99.90;;;;;;5036253;28;20033;-58
2021/03/23 00:03:38;;;;;;;4.82;2.75;;;3.70;99.90;;;;;;5036130;28;20032;-52
2021/03/23 00:06:06;;;;;;;5.72;3.17;;;3.50;99.90;;;;;;5036204;28;20354;-55
2021/03/23 00:08:44;;;;;;;3.80;2.42;;;3.50;99.90;;;;;;5036118;28;20025;-58
2021/03/23 00:11:15;;;;;;;4.53;2.83;;;3.60;99.90;;;;;;5036084;28;20132;-60
2021/03/23 00:13:43;;;;;;;5.18;3.10;;;3.70;99.90;;;;;;5001550;28;20041;-56
2021/03/23 00:16:10;;;;;;;4.95;2.90;;;3.60;99.90;;;;;;5035796;28;20499;-57
2021/03/23 00:18:36;;;;;;;7.18;3.10;;;3.70;99.90;;;;;;5001446;28;20034;-57
2021/03/23 00:21:02;;;;;;;4.70;3.00;;;3.90;99.90;;;;;;5036158;28;20104;-54
2021/03/23 00:23:28;;;;;;;5.25;3.08;;;3.90;99.90;;;;;;5035775;28;20053;-54
2021/03/23 00:25:54;;;;;;;3.75;2.50;;;3.90;99.90;;;;;;5036328;28;20026;-52
2021/03/23 00:28:22;;;;;;;6.20;2.50;;;3.90;99.90;;;;;;5036104;28;20152;-56
2021/03/23 00:30:49;;;;;;;5.68;3.20;;;;;;;;;;5035957;28;20037;-56
2021/03/23 00:33:15;;;;;;;5.97;3.00;;;;;;;;;;5017504;28;20499;-55
2021/03/23 00:35:40;;;;;;;5.93;3.03;;;4.10;99.90;;;;;;5035835;28;20092;-53
2021/03/23 00:38:08;;;;;;;4.55;2.15;;;4.20;99.90;;;;;;5035814;28;20469;-56
2021/03/23 00:40:35;;;;;;;4.20;2.30;;;4.20;99.90;;;;;;5001350;28;20033;-56
2021/03/23 00:43:03;;;;;;;4.05;2.53;;;4.20;99.90;;;;;;5035651;28;20037;-54
2021/03/23 00:45:30;;;;;;;4.80;2.50;;;;;;;;;;5035512;28;20038;-52
2021/03/23 00:47:56;;;;;;;4.65;3.00;;;4.20;99.90;;;;;;5017187;28;20033;-55
2021/03/23 00:50:22;;;;;;;6.50;3.25;;;4.10;99.90;;;;;;5035897;28;20034;-53
2021/03/23 00:52:48;;;;;;;6.55;2.78;;;4.00;99.90;;;;;;5017061;28;20044;-56
2021/03/23 00:55:14;;;;;;;5.03;3.10;;;4.00;99.90;;;;;;4968109;28;20034;-52
2021/03/23 00:57:39;;;;;;;6.95;2.95;;;4.00;99.90;;;;;;5035413;28;20022;-54
2021/03/23 01:00:08;;;;;;;5.82;2.65;;;3.90;99.90;;;;;;5035304;28;20469;-53
2021/03/23 01:02:34;;;;;;;4.43;2.80;;;;;;;;;;5035022;28;20120;-56
2021/03/23 01:05:00;;;;;;;5.80;2.75;;;;;;;;;;5035246;28;20033;-55
2021/03/23 01:07:26;;;;;;;9.02;3.13;;;3.60;99.90;;;;;;5035175;28;20026;-55
2021/03/23 01:09:52;;;;;;;9.55;3.17;;;3.60;99.90;;;;;;5035168;28;20037;-57
2021/03/23 01:12:18;;;;;;;6.50;4.03;;;3.40;99.90;;;;;;5035013;28;20029;-54
2021/03/23 01:14:44;;;;;;;4.22;3.03;;;3.50;99.90;;;;;;5035034;28;20055;-57
2021/03/23 01:17:09;;;;;;;4.70;3.30;;;3.50;99.90;;;;;;5034576;28;20062;-56
2021/03/23 01:19:36;;;;;;;5.32;2.58;;;3.50;99.90;;;;;;5034588;28;20048;-51
2021/03/23 01:22:02;;;;;;;4.65;2.88;;;3.50;99.90;;;;;;5034848;28;20033;-55
2021/03/23 01:24:28;;;;;;;6.25;3.00;;;;;;;;;;5034802;28;20029;-56
2021/03/23 01:26:54;;;;;;;5.18;3.33;;;3.80;99.90;;;;;;4983807;28;20041;-53
2021/03/23 01:29:20;;;;;;;5.68;3.72;;;;;;;;;;5016874;28;20086;-56
2021/03/23 01:31:46;;;;;;;7.43;3.67;;;4.00;99.90;;;;;;5034852;28;20044;-58
2021/03/23 01:34:12;;;;;;;8.18;4.53;;;4.00;99.90;;;;;;5016450;28;20038;-56
2021/03/23 01:36:37;;;;;;;6.63;3.60;;;4.00;99.90;;;;;;5034450;28;20026;-55
2021/03/23 01:39:04;;;;;;;5.00;3.40;;;4.00;99.90;;;;;;5034371;28;20087;-55
2021/03/23 01:41:31;;;;;;;8.80;4.18;;;3.90;99.90;;;;;;5034306;28;20072;-56
2021/03/23 01:43:57;;;;;;;6.00;3.67;;;4.00;99.90;;;;;;5034281;28;20029;-55
2021/03/23 01:46:45;;;;;;;6.70;3.35;;;4.00;99.90;;;;;;5034426;28;20029;-56
2021/03/23 01:49:39;;;;;;;8.27;3.90;;;4.00;99.90;;;;;;5034258;28;20159;-54
2021/03/23 01:52:20;;;;;;;5.50;3.45;;;3.90;99.90;;;;;;5034080;28;20029;-55
2021/03/23 01:54:55;;;;;;;4.82;3.08;;;3.80;99.90;;;;;;5034148;28;20026;-54
2021/03/23 01:57:21;;;;;;;5.80;3.30;;;;;;;;;;5034241;28;20037;-57
2021/03/23 01:59:51;;;;;;;4.63;3.05;;;3.60;99.90;;;;;;5034284;28;20058;-56
2021/03/23 02:02:20;;;;;;;6.10;2.75;;;3.60;99.90;;;;;;5033691;28;20099;-55
2021/03/23 02:04:46;;;;;;;5.75;3.42;;;3.50;99.90;;;;;;5033469;28;20076;-55
2021/03/23 02:07:12;;;;;;;6.13;3.05;;;3.50;99.90;;;;;;5033957;28;20080;-55
2021/03/23 02:09:38;;;;;;;5.97;3.15;;;3.40;99.90;;;;;;5016136;28;20029;-56
2021/03/23 02:12:10;;;;;;;5.40;3.50;;;3.40;99.90;;;;;;5033961;28;20026;-56
2021/03/23 02:14:39;;;;;;;5.05;3.28;;;3.40;99.90;;;;;;5015815;28;20037;-55
2021/03/23 02:17:14;;;;;;;5.32;3.08;;;3.50;99.90;;;;;;5033546;28;20022;-53
2021/03/23 02:19:40;;;;;;;4.72;3.30;;;3.60;99.90;;;;;;5015504;28;20037;-56
2021/03/23 02:22:13;;;;;;;7.22;3.30;;;3.60;99.90;;;;;;5033651;28;20038;-55
2021/03/23 02:24:39;;;;;;;4.30;2.83;;;3.70;99.90;;;;;;5033756;28;20394;-55
2021/03/23 02:27:05;;;;;;;5.38;2.85;;;3.70;99.90;;;;;;4998377;28;20037;-55
2021/03/23 02:29:32;;;;;;;6.25;3.17;;;3.70;99.90;;;;;;5014987;28;20562;-56
2021/03/23 02:32:00;;;;;;;5.72;2.97;;;3.70;99.90;;;;;;5033779;28;20040;-53
2021/03/23 02:34:26;;;;;;;7.05;3.40;;;3.70;99.90;;;;;;4982358;28;20484;-56
2021/03/23 02:36:52;;;;;;;6.43;2.63;;;3.70;99.90;;;;;;5033489;28;20082;-53
2021/03/23 02:39:22;;;;;;;6.90;3.20;;;3.60;99.90;;;;;;5033366;28;20033;-54
2021/03/23 02:41:48;;;;;;;5.32;2.72;;;3.40;99.90;;;;;;5033507;28;20091;-54
2021/03/23 02:44:14;;;;;;;5.97;3.58;;;3.20;99.90;;;;;;5033433;28;20457;-56
2021/03/23 02:46:40;;;;;;;5.63;2.45;;;3.10;99.90;;;;;;5033327;28;20087;-54
2021/03/23 02:49:07;;;;;;;5.60;3.38;;;3.10;99.90;;;;;;5033438;28;20096;-55
2021/03/23 02:51:33;;;;;;;4.85;3.05;;;3.10;99.90;;;;;;4999052;28;20191;-56
2021/03/23 02:53:59;;;;;;;7.10;3.17;;;3.10;99.90;;;;;;5033434;28;20512;-61
2021/03/23 02:56:25;;;;;;;7.60;3.47;;;3.10;99.90;;;;;;5033295;28;20073;-53
2021/03/23 02:58:51;;;;;;;3.75;2.45;;;2.90;99.90;;;;;;5033114;28;20030;-59
2021/03/23 03:01:17;;;;;;;7.00;3.20;;;2.90;99.90;;;;;;5033430;28;20041;-59
2021/03/23 03:03:43;;;;;;;5.20;2.83;;;2.90;99.90;;;;;;5033242;28;20029;-58
2021/03/23 03:06:10;;;;;;;4.47;2.78;;;2.70;99.90;;;;;;4998656;28;20042;-56
2021/03/23 03:08:37;;;;;;;5.68;2.80;;;2.80;99.90;;;;;;5033319;28;20131;-57
2021/03/23 03:11:03;;;;;;;4.80;2.70;;;2.80;99.90;;;;;;5015057;28;20044;-56
2021/03/23 03:13:30;;;;;;;3.53;2.22;;;2.80;99.90;;;;;;5033048;28;20060;-56
2021/03/23 03:15:56;;;;;;;4.68;2.97;;;;;;;;;;5036786;28;20040;-55
2021/03/23 03:18:24;;;;;;;5.63;3.25;;;2.50;99.90;;;;;;5037094;28;20037;-54
2021/03/23 03:20:50;;;;;;;5.72;3.00;;;2.60;99.90;;;;;;5036616;28;20456;-59
2021/03/23 03:23:17;;;;;;;4.57;2.60;;;2.50;99.90;;;;;;5036870;28;20037;-56
2021/03/23 03:25:43;;;;;;;6.20;3.20;;;2.50;99.90;;;;;;5036864;28;20501;-56
2021/03/23 03:28:09;;;;;;;6.47;2.72;;;2.50;99.90;;;;;;4985866;28;20086;-57
2021/03/23 03:30:37;;;;;;;5.35;2.90;;;2.50;99.90;;;;;;5018283;28;20176;-57
2021/03/23 03:33:05;;;;;;;3.95;2.88;;;2.50;99.90;;;;;;5036668;28;20087;-57
2021/03/23 03:35:33;;;;;;;3.83;2.83;;;;;;;;;;5002067;28;20450;-53
2021/03/23 03:38:00;;;;;;;4.10;2.42;;;2.20;99.90;;;;;;5036740;28;20049;-57
2021/03/23 03:40:29;;;;;;;6.25;3.40;;;2.40;99.90;;;;;;5036646;28;20537;-58
2021/03/23 03:42:55;;;;;;;4.65;2.60;;;2.40;99.90;;;;;;5033509;28;20037;-55
2021/03/23 03:45:23;;;;;;;7.18;3.10;;;2.10;99.90;;;;;;5036501;28;20056;-54
2021/03/23 03:47:53;;;;;;;9.50;2.97;;;2.20;99.90;;;;;;5036442;28;20041;-57
2021/03/23 03:50:20;;;;;;;5.72;2.90;;;2.30;99.90;;;;;;5036365;28;20033;-55
2021/03/23 03:52:46;;;;;;;5.40;2.63;;;2.10;99.90;;;;;;5036348;28;20456;-57
2021/03/23 03:55:19;;;;;;;4.18;2.60;;;2.00;99.90;;;;;;5036422;28;20052;-54
2021/03/23 03:57:45;;;;;;;6.25;3.20;;;2.10;99.90;;;;;;5036428;28;20045;-55
2021/03/23 04:00:14;;;;;;;5.18;2.80;;;2.20;99.90;;;;;;5036264;28;20029;-54
2021/03/23 04:02:40;;;;;;;5.28;2.72;;;2.30;99.90;;;;;;5000791;28;20053;-58
2021/03/23 04:05:07;;;;;;;5.32;2.70;;;2.30;99.90;;;;;;5036094;28;20052;-56
2021/03/23 04:07:33;;;;;;;3.35;2.45;;;2.30;99.90;;;;;;5036037;28;20483;-56
2021/03/23 04:09:59;;;;;;;4.20;2.55;;;2.30;99.90;;;;;;5036154;28;20120;-54
2021/03/23 04:12:24;;;;;;;4.30;2.33;;;2.20;99.90;;;;;;5035863;28;20036;-57
2021/03/23 04:14:50;;;;;;;4.20;2.78;;;2.30;99.90;;;;;;5035925;28;20416;-59
2021/03/23 04:17:16;;;;;;;4.25;2.30;;;2.40;99.90;;;;;;5035960;28;20029;-57
2021/03/23 04:19:42;;;;;;;4.25;2.47;;;2.30;99.90;;;;;;5035887;28;20045;-57
2021/03/23 04:22:08;;;;;;;7.18;2.90;;;2.30;99.90;;;;;;5035899;28;20037;-55
2021/03/23 04:24:34;;;;;;;4.00;2.60;;;2.30;99.90;;;;;;5035646;28;20037;-54
2021/03/23 04:26:59;;;;;;;5.53;2.70;;;2.40;99.90;;;;;;5000448;28;20538;-57
2021/03/23 04:29:25;;;;;;;4.97;2.80;;;2.40;99.90;;;;;;5001990;28;20037;-56
2021/03/23 04:31:51;;;;;;;3.78;2.25;;;2.40;99.90;;;;;;5035576;28;20084;-56
2021/03/23 04:34:17;;;;;;;5.72;2.65;;;2.30;99.90;;;;;;5035807;28;20465;-58
2021/03/23 04:36:43;;;;;;;5.22;2.67;;;2.30;99.90;;;;;;5035416;28;20043;-56
2021/03/23 04:39:12;;;;;;;4.15;2.28;;;2.30;99.90;;;;;;5035509;28;20068;-54
2021/03/23 04:41:39;;;;;;;5.72;2.75;;;2.30;99.90;;;;;;5017289;28;20033;-55
2021/03/23 04:44:07;;;;;;;4.60;2.78;;;2.40;99.90;;;;;;5035397;28;20056;-55
2021/03/23 04:46:33;;;;;;;4.97;2.47;;;2.40;99.90;;;;;;5035552;28;20037;-53
2021/03/23 04:48:59;;;;;;;4.22;2.65;;;2.40;99.90;;;;;;5035264;28;20116;-59
2021/03/23 04:51:28;;;;;;;4.32;2.38;;;2.20;99.90;;;;;;5035176;28;20468;-57
2021/03/23 04:54:00;;;;;;;5.70;2.70;;;2.40;99.90;;;;;;5035199;28;20033;-59
2021/03/23 04:56:30;;;;;;;5.32;2.50;;;2.30;99.90;;;;;;5000493;28;20420;-58
2021/03/23 04:58:56;;;;;;;5.63;2.25;;;2.30;99.90;;;;;;5000491;28;20112;-54
2021/03/23 05:01:22;;;;;;;5.20;2.35;;;2.40;99.90;;;;;;5035064;28;20563;-60
2021/03/23 05:03:57;;;;;;;5.32;2.30;;;2.30;99.90;;;;;;5000135;28;20468;-55
2021/03/23 05:06:24;;;;;;;5.53;2.53;;;2.50;99.90;;;;;;5034946;28;20508;-58
2021/03/23 05:08:50;;;;;;;3.08;2.05;;;2.50;99.90;;;;;;5035013;28;20025;-55
2021/03/23 05:11:19;;;;;;;4.20;2.60;;;2.30;99.90;;;;;;5034689;28;20103;-54
2021/03/23 05:13:45;;;;;;;5.38;2.72;;;2.40;99.90;;;;;;5034811;28;20033;-57
2021/03/23 05:16:11;;;;;;;3.10;2.67;;;2.50;99.90;;;;;;5034621;28;20033;-55
2021/03/23 05:18:37;;;;;;;3.80;2.42;;;2.50;99.90;;;;;;5035109;28;20025;-55
2021/03/23 05:21:03;;;;;;;3.85;2.67;;;2.40;99.90;;;;;;5034583;28;20384;-57
2021/03/23 05:23:29;;;;;;;7.00;2.92;;;2.60;99.90;;;;;;5034574;28;20117;-58
2021/03/23 05:25:55;;;;;;;4.53;2.97;;;2.80;99.90;;;;;;5034577;28;20131;-55
2021/03/23 05:28:21;;;;;;;5.15;2.90;;;2.70;99.90;;;;;;5034465;28;20496;-55
2021/03/23 05:30:49;;;;;;;5.35;2.85;;;2.80;99.90;;;;;;5016193;28;20053;-55
2021/03/23 05:33:15;;;;;;;5.65;2.80;;;2.80;99.90;;;;;;4999881;28;20635;-55
2021/03/23 05:35:42;;;;;;;5.70;2.95;;;2.90;99.90;;;;;;4999726;28;20041;-54
2021/03/23 05:38:08;;;;;;;4.25;2.65;;;2.60;99.90;;;;;;4982678;28;20037;-54
2021/03/23 05:40:47;;;;;;;4.78;2.58;;;2.60;99.90;;;;;;5034085;28;20504;-58
2021/03/23 05:43:28;;;;;;;5.30;2.92;;;2.70;99.90;;;;;;5034172;28;20034;-59
2021/03/23 05:46:18;;;;;;;4.53;3.17;;;2.80;99.90;;;;;;5034163;28;20028;-58
2021/03/23 05:48:56;;;;;;;5.53;2.97;;;3.10;99.90;;;;;;5033082;28;20366;-58
2021/03/23 05:51:43;;;;;;;3.67;2.90;;;3.10;99.90;;;;;;5033879;28;20037;-55
2021/03/23 05:54:23;;;;;;;6.03;3.45;;;3.10;99.90;;;;;;5034322;28;20060;-56
2021/03/23 05:56:53;;;;;;;5.20;3.20;;;;;;;;;;5033950;28;20079;-60
2021/03/23 05:59:37;;;;;;;5.38;2.92;;;3.10;99.90;;;;;;5033791;28;20499;-59
2021/03/23 06:02:25;;;;;;;4.80;3.00;;;3.10;99.90;;;;;;5034186;28;20155;-61
2021/03/23 06:05:20;;;;;;;4.28;3.03;;;3.20;99.90;;;;;;5033658;28;20029;-56
2021/03/23 06:07:49;;;;;;;5.32;2.47;;;3.20;99.90;;;;;;4934440;29;20094;-54
2021/03/23 06:10:17;;;;;;;5.45;2.95;;;3.50;99.90;;;;;;4950466;29;20043;-57
2021/03/23 06:13:06;;;;;;;5.75;3.10;;;3.40;99.90;;;;;;4934372;29;20468;-54
2021/03/23 06:15:59;;;;;;;5.25;2.83;;;3.60;99.90;;;;;;4934901;29;20107;-55
2021/03/23 06:18:34;;;;;;;3.63;2.95;;;3.60;99.90;;;;;;4934650;29;20068;-54
2021/03/23 06:21:16;;;;;;;5.13;2.80;;;3.60;99.90;;;;;;4934213;29;20038;-54
2021/03/23 06:24:14;;;;;;;4.40;2.55;;;;;;;;;;4934466;29;20107;-54
2021/03/23 06:26:40;;;;;;;4.22;2.45;;;3.70;99.90;;;;;;4934340;29;20043;-53
2021/03/23 06:29:27;;;;;;;3.60;2.80;;;3.80;99.90;;;;;;4934270;29;20039;-57
2021/03/23 06:32:15;;;;;;;6.78;3.33;;;3.80;99.90;;;;;;4934127;29;20052;-55
2021/03/23 06:34:43;;;;;;;5.47;3.03;;;3.80;99.90;;;;;;4950255;29;20122;-56
2021/03/23 06:37:20;;;;;;;5.53;3.35;;;3.70;99.90;;;;;;4934028;29;20047;-52
2021/03/23 06:39:47;;;;;;;4.70;2.30;;;3.80;99.90;;;;;;4934206;29;20048;-55
2021/03/23 06:42:13;;;;;;;9.30;2.85;;;3.80;99.90;;;;;;4934059;29;20134;-53
2021/03/23 06:44:40;;;;;;;5.78;3.17;;;;;;;;;;4943043;29;20143;-53
2021/03/23 06:47:35;;;;;;;6.88;3.28;;;3.90;99.90;;;;;;4953400;29;20035;-54
2021/03/23 06:50:25;;;;;;;6.05;3.05;;;4.30;99.90;;;;;;4917215;29;20059;-56
2021/03/23 06:53:07;;;;;;;4.72;2.35;;;4.00;99.90;;;;;;4918841;29;20039;-53
2021/03/23 06:55:33;;;;;;;7.07;3.50;;;4.10;99.90;;;;;;4919065;29;20412;-54
2021/03/23 06:58:00;;;;;;;4.60;2.83;;;4.30;99.90;;;;;;4919111;29;20608;-52
2021/03/23 07:00:32;;;;;;;3.78;2.35;;;4.30;99.90;;;;;;4919025;29;20408;-56
2021/03/23 07:03:33;;;;;;;7.13;3.13;;;4.50;99.90;;;;;;4964572;28;20156;-52
2021/03/23 07:05:59;;;;;;;3.60;2.45;;;4.70;99.90;;;;;;4899926;29;20032;-54
2021/03/23 07:08:26;;;;;;;6.18;3.05;;;4.80;99.90;;;;;;4900084;29;20421;-56
2021/03/23 07:10:52;;;;;;;3.72;1.73;;;5.00;99.90;;;;;;4899939;29;20039;-56
2021/03/23 07:13:30;;;;;;;4.07;2.70;;;4.80;99.90;;;;;;4899908;29;20132;-56
2021/03/23 07:16:11;;;;;;;5.50;2.90;;;4.80;99.90;;;;;;4899681;29;20040;-56
2021/03/23 07:18:42;;;;;;;3.22;2.08;;;4.80;99.90;;;;;;4918616;29;20024;-54
2021/03/23 07:21:31;;;;;;;4.32;2.72;;;4.60;99.90;;;;;;4942064;29;20043;-54
2021/03/23 07:24:15;;;;;;;4.82;2.75;;;4.70;99.90;;;;;;4956613;29;20043;-52
2021/03/23 07:27:01;;;;;;;3.95;2.45;;;4.90;99.90;;;;;;4956697;29;20043;-53
2021/03/23 07:29:34;;;;;;;4.35;2.45;;;5.00;99.90;;;;;;4973562;28;20061;-55
2021/03/23 07:32:14;;;;;;;6.15;2.60;;;5.40;99.90;;;;;;4995878;28;20053;-52
2021/03/23 07:34:54;;;;;;;3.83;2.10;;;5.60;99.90;;;;;;4995375;28;20046;-55
2021/03/23 07:37:32;;;;;;;4.30;2.47;;;5.90;99.90;;;;;;4995234;28;20034;-53
2021/03/23 07:40:11;;;;;;;9.82;2.83;;;5.70;99.90;;;;;;5016214;28;20037;-52
2021/03/23 07:42:45;;;;;;;5.50;3.22;;;5.90;99.90;;;;;;5036508;28;20096;-56
2021/03/23 07:45:21;;;;;;;3.90;2.90;;;5.90;99.90;;;;;;5036850;28;20416;-53
2021/03/23 07:48:11;;;;;;;6.10;3.08;;;6.40;99.90;;;;;;5036505;28;20025;-52
2021/03/23 07:50:51;;;;;;;8.68;3.75;;;6.10;99.90;;;;;;5036460;28;20401;-53
2021/03/23 07:53:34;;;;;;;6.80;2.78;;;6.20;99.90;;;;;;5033739;28;20037;-55
2021/03/23 07:56:15;;;;;;;5.22;2.97;;;;;;;;;;5036931;28;20055;-54
2021/03/23 07:59:14;;;;;;;2.53;2.20;;;6.70;99.90;;;;;;5036013;28;20064;-54
2021/03/23 08:01:55;;;;;;;5.85;3.15;;;;;;;;;;5034404;28;20033;-50
2021/03/23 08:04:44;;;;;;;6.78;3.35;;;;;;;;;;5050016;28;20025;-47
2021/03/23 08:07:13;;;;;;;5.43;3.55;;;;;;;;;;4952995;29;20466;-50
2021/03/23 08:09:58;;;;;;;6.07;2.97;;;;;;;;;;4954178;29;20054;-50
2021/03/23 08:12:51;;;;;;;21.80;14.57;;;8.00;99.90;;;;;;4953912;29;20638;-48
2021/03/23 08:15:31;;;;;;;15.50;10.00;;;8.20;99.90;;;;;;4953827;29;20066;-50
2021/03/23 08:18:18;;;;;;;8.98;5.00;;;8.10;99.90;;;;;;4954010;29;20067;-50
2021/03/23 08:21:22;;;;;;;8.48;6.78;;;8.10;99.90;;;;;;4952316;29;20047;-50
2021/03/23 08:24:29;;;;;;;5.00;3.15;;;8.10;99.90;;;;;;4948960;29;20870;-50
2021/03/23 08:27:01;;;;;;;8.38;2.85;;;;;;;;;;4913589;29;20042;-48
2021/03/23 08:29:53;;;;;;;6.63;3.72;;;9.10;99.90;;;;;;4917151;29;20111;-52
2021/03/23 08:32:27;;;;;;;7.47;3.42;;;;;;;;;;4916377;29;20529;-49
2021/03/23 08:35:07;;;;;;;5.28;3.17;;;;;;;;;;4914633;29;20119;-48
2021/03/23 08:37:43;;;;;;;6.13;3.67;;;10.20;99.90;;;;;;4916776;29;20036;-51
2021/03/23 08:40:27;;;;;;;5.90;3.50;;;;;;;;;;4916720;29;20032;-55
2021/03/23 08:42:53;;;;;;;4.72;3.03;;;9.60;99.90;;;;;;4900819;29;20079;-49
2021/03/23 08:45:28;;;;;;;4.82;2.90;;;9.60;99.90;;;;;;4939167;29;20113;-51
2021/03/23 08:48:03;;;;;;;5.85;3.53;;;;;;;;;;4954823;29;20042;-51
2021/03/23 08:50:35;;;;;;;7.57;3.95;;;;;;;;;;4938742;29;20035;-51
2021/03/23 08:53:03;;;;;;;6.53;3.72;;;;;;;;;;4938797;29;20095;-51
2021/03/23 08:55:33;;;;;;;6.25;3.35;;;;;;;;;;4955015;29;20170;-51
2021/03/23 08:58:07;;;;;;;5.93;3.38;;;;;;;;;;5018316;28;20040;-51
2021/03/23 09:00:40;;;;;;;6.80;3.42;;;;;;;;;;5055255;28;20036;-51
2021/03/23 09:03:11;;;;;;;5.18;2.92;;;12.70;99.90;;;;;;5054831;28;20037;-51
2021/03/23 09:05:39;;;;;;;7.18;3.78;;;;;;;;;;5055154;28;20036;-51
2021/03/23 09:08:24;;;;;;;7.20;4.45;;;;;;;;;;5054735;28;20494;-51
2021/03/23 09:10:54;;;;;;;4.35;3.00;;;14.80;99.90;;;;;;5054778;28;20037;-51
2021/03/23 09:13:35;;;;;;;7.47;3.97;;;14.30;85.40;;;;;;5054534;28;20033;-50
2021/03/23 09:16:15;;;;;;;7.78;4.15;;;13.20;82.50;;;;;;5055072;28;20352;-50
2021/03/23 09:19:04;;;;;;;8.35;4.97;;;;;;;;;;5054895;28;20036;-50
2021/03/23 09:21:48;;;;;;;5.90;3.95;;;;;;;;;;4993202;28;20039;-51
2021/03/23 09:24:24;;;;;;;4.60;3.60;;;;;;;;;;4984283;28;20129;-49
2021/03/23 09:26:51;;;;;;;12.43;7.28;;;;;;;;;;4980028;28;20043;-50
2021/03/23 09:29:33;;;;;;;5.82;4.15;;;;;;;;;;4989490;28;20038;-48
2021/03/23 09:32:28;;;;;;;6.07;3.20;;;10.10;99.90;;;;;;4992031;28;20054;-51
2021/03/23 09:35:07;;;;;;;7.75;4.47;;;;;;;;;;4980159;28;20050;-51
2021/03/23 09:37:39;;;;;;;9.52;4.07;;;11.30;92.30;;;;;;4976154;28;20037;-51
2021/03/23 09:40:16;;;;;;;7.15;3.38;;;11.50;91.90;;;;;;4978940;28;20047;-49
2021/03/23 09:42:45;;;;;;;7.28;4.05;;;10.50;86.90;;;;;;4979836;28;20050;-61
2021/03/23 09:45:11;;;;;;;5.22;2.97;;;10.40;86.40;;;;;;4973029;28;20443;-52
2021/03/23 09:47:51;;;;;;;6.40;3.25;;;9.60;91.00;;;;;;4973369;28;20122;-57
2021/03/23 09:50:36;;;;;;;7.05;4.10;;;;;;;;;;4973023;28;20214;-56
2021/03/23 09:53:21;;;;;;;8.48;3.25;;;9.50;91.50;;;;;;4973032;28;20043;-49
2021/03/23 09:55:48;;;;;;;8.32;4.15;;;;;;;;;;4977243;28;20027;-50
2021/03/23 09:58:20;;;;;;;3.13;2.40;;;;;;;;;;5008252;28;20044;-52
2021/03/23 10:00:46;;;;;;;7.63;3.03;;;10.90;99.90;;;;;;5045131;28;20021;-51
2021/03/23 10:03:36;;;;;;;4.13;3.28;;;10.70;99.20;;;;;;5002453;28;20055;-50
2021/03/23 10:06:06;;;;;;;7.65;3.00;;;;;;;;;;5049433;28;20095;-55
2021/03/23 10:08:33;;;;;;;10.15;4.97;;;12.60;91.20;;;;;;5020242;28;20048;-49
2021/03/23 10:11:13;;;;;;;2.53;2.08;;;;;;;;;;5015626;28;20484;-49
2021/03/23 10:13:49;;;;;;;6.32;3.33;;;11.40;98.10;;;;;;5015254;28;20420;-51
2021/03/23 10:16:33;;;;;;;4.40;2.83;;;10.90;84.40;;;;;;5005835;28;20041;-50
2021/03/23 10:19:03;;;;;;;4.60;3.53;;;11.20;87.00;;;;;;5044402;28;20029;-50
2021/03/23 10:21:31;;;;;;;4.70;3.00;;;;;;;;;;5041964;28;20036;-50
2021/03/23 10:23:59;;;;;;;6.15;3.38;;;;;;;;;;5048570;28;20090;-50
2021/03/23 10:26:33;;;;;;;2.38;1.67;;;;;;;;;;5021882;28;20397;-51
2021/03/23 10:29:09;;;;;;;4.60;2.85;;;;;;;;;;5012018;28;20045;-50
2021/03/23 10:31:51;;;;;;;6.30;2.67;;;;;;;;;;5034438;28;20611;-51
2021/03/23 10:34:23;;;;;;;3.70;2.93;;;9.60;99.90;;;;;;5033401;28;20483;-50
2021/03/23 10:36:53;;;;;;;5.47;3.28;;;;;;;;;;5033580;28;20037;-50
2021/03/23 10:39:26;;;;;;;5.20;3.33;;;;;;;;;;5033512;28;20492;-51
2021/03/23 10:41:53;;;;;;;5.50;3.15;;;;;;;;;;5033355;28;20033;-50
2021/03/23 10:44:21;;;;;;;6.38;3.75;;;;;;;;;;4998445;28;20472;-52
2021/03/23 10:46:47;;;;;;;6.75;3.55;;;;;;;;;;5015503;28;20029;-50
2021/03/23 10:49:19;;;;;;;2.95;2.50;;;12.80;96.80;;;;;;5033467;28;20029;-50
2021/03/23 10:51:47;;;;;;;5.57;3.10;;;11.70;78.50;;;;;;5033039;28;20417;-50
2021/03/23 10:54:13;;;;;;;9.75;3.55;;;12.20;90.50;;;;;;5033293;28;20495;-51
2021/03/23 10:56:46;;;;;;;4.88;3.33;;;12.20;86.70;;;;;;5033543;28;20029;-51
2021/03/23 10:59:18;;;;;;;4.72;2.40;;;11.60;80.40;;;;;;5033022;28;20033;-51
2021/03/23 11:01:58;;;;;;;3.83;2.47;;;;;;;;;;5033044;28;20129;-50
2021/03/23 11:04:24;;;;;;;6.45;3.58;;;;;;;;;;5032992;28;20025;-51
2021/03/23 11:06:51;;;;;;;4.60;3.33;;;10.40;90.60;;;;;;5032894;28;20040;-51
2021/03/23 11:09:17;;;;;;;5.60;3.75;;;11.10;84.80;;;;;;5033121;28;20104;-49
2021/03/23 11:11:44;;;;;;;4.35;3.25;;;12.20;89.50;;;;;;5033331;28;20079;-51
2021/03/23 11:14:10;;;;;;;4.80;3.08;;;;;;;;;;5032715;28;20037;-49
2021/03/23 11:16:40;;;;;;;7.18;2.40;;;13.20;80.90;;;;;;5033190;28;20053;-49
2021/03/23 11:19:31;;;;;;;3.75;2.60;;;13.30;75.10;;;;;;5033323;28;20032;-50
2021/03/23 11:22:03;;;;;;;3.95;2.47;;;13.20;73.90;;;;;;5032595;28;20064;-49
2021/03/23 11:24:29;;;;;;;3.70;2.75;;;12.60;77.40;;;;;;5032870;28;20041;-51
2021/03/23 11:26:56;;;;;;;5.80;2.80;;;12.10;74.30;;;;;;4982373;28;20033;-50
2021/03/23 11:29:22;;;;;;;5.10;2.42;;;12.40;79.50;;;;;;5032572;28;20037;-49
2021/03/23 11:31:48;;;;;;;3.35;2.20;;;11.70;76.40;;;;;;5032811;28;20046;-49
2021/03/23 11:34:14;;;;;;;3.33;1.98;;;11.30;76.80;;;;;;5032883;28;20477;-48
2021/03/23 11:36:40;;;;;;;3.25;1.92;;;10.90;73.30;;;;;;5017250;28;20417;-50
2021/03/23 11:39:10;;;;;;;5.07;3.10;;;11.10;74.00;;;;;;5036623;28;20104;-49
2021/03/23 11:41:41;;;;;;;4.22;2.67;;;11.10;74.10;;;;;;5036694;28;20168;-49
2021/03/23 11:44:28;;;;;;;4.47;2.40;;;11.20;74.10;;;;;;5047680;28;20032;-48
2021/03/23 11:47:14;;;;;;;4.45;2.92;;;10.70;83.30;;;;;;5039893;28;20029;-49
2021/03/23 11:50:07;;;;;;;5.55;3.28;;;10.40;90.00;;;;;;5048111;28;20033;-48
2021/03/23 11:52:34;;;;;;;7.95;2.88;;;10.90;77.90;;;;;;5035657;28;20099;-50
2021/03/23 11:55:03;;;;;;;4.72;3.20;;;11.70;90.60;;;;;;5036269;28;20026;-49
2021/03/23 11:57:29;;;;;;;5.25;3.20;;;12.20;76.10;;;;;;4970929;28;20053;-48
2021/03/23 11:59:55;;;;;;;5.22;3.10;;;12.30;73.80;;;;;;4968850;28;20041;-49
2021/03/23 12:02:21;;;;;;;4.07;2.65;;;12.60;72.30;;;;;;5036005;28;20040;-49
2021/03/23 12:04:47;;;;;;;3.88;2.33;;;12.70;74.40;;;;;;4952655;28;20029;-49
2021/03/23 12:07:27;;;;;;;3.75;2.47;;;12.50;73.30;;;;;;4984845;28;20037;-48
2021/03/23 12:10:05;;;;;;;4.40;2.72;;;12.40;77.30;;;;;;5036220;28;20067;-48
2021/03/23 12:12:46;;;;;;;3.10;2.20;;;12.60;76.00;;;;;;5001086;28;20369;-49
2021/03/23 12:15:26;;;;;;;7.32;3.22;;;13.10;74.00;;;;;;5035835;28;20072;-49
2021/03/23 12:17:54;;;;;;;9.38;3.80;;;13.40;72.50;;;;;;5035934;28;20036;-51
2021/03/23 12:20:29;;;;;;;3.45;2.80;;;12.80;68.50;;;;;;5035754;28;20030;-49
2021/03/23 12:22:55;;;;;;;4.97;3.03;;;13.00;70.00;;;;;;5035847;28;20037;-48
2021/03/23 12:25:23;;;;;;;8.82;3.35;;;13.20;69.50;;;;;;5035625;28;20029;-50
2021/03/23 12:27:50;;;;;;;8.45;3.88;;;13.60;69.20;;;;;;5035931;28;20150;-50
2021/03/23 12:30:17;;;;;;;5.53;3.30;;;;;;;;;;5035432;28;20077;-48
2021/03/23 12:32:42;;;;;;;9.10;3.97;;;13.20;96.30;;;;;;5035889;28;20053;-51
2021/03/23 12:35:13;;;;;;;4.85;2.60;;;13.20;64.80;;;;;;5000696;28;20033;-51
2021/03/23 12:37:41;;;;;;;6.55;3.70;;;13.20;68.20;;;;;;4952577;28;20033;-49
2021/03/23 12:40:09;;;;;;;4.00;2.67;;;13.50;66.80;;;;;;4952574;28;20037;-51
2021/03/23 12:42:35;;;;;;;6.05;2.80;;;13.50;66.40;;;;;;4952073;28;20060;-51
2021/03/23 12:45:02;;;;;;;4.72;3.15;;;;;;;;;;4987637;28;20037;-48
2021/03/23 12:47:28;;;;;;;6.95;3.78;;;;;;;;;;5054132;28;20041;-48
2021/03/23 12:49:54;;;;;;;6.13;2.88;;;;;;;;;;5050456;28;20131;-48
2021/03/23 12:52:22;;;;;;;4.47;2.60;;;;;;;;;;5047009;28;20029;-50
2021/03/23 12:54:55;;;;;;;4.80;2.55;;;;;;;;;;5035195;28;20068;-49
2021/03/23 12:57:28;;;;;;;5.38;2.40;;;14.20;62.60;;;;;;5035183;28;20052;-49
2021/03/23 12:59:56;;;;;;;4.93;2.40;;;;;;;;;;5052791;28;20029;-48
2021/03/23 13:02:24;;;;;;;5.90;3.08;;;;;;;;;;5043759;28;20087;-50
2021/03/23 13:04:50;;;;;;;4.85;2.40;;;13.30;90.80;;;;;;5042427;28;20025;-48
2021/03/23 13:07:37;;;;;;;4.68;2.03;;;12.80;64.30;;;;;;4994647;28;20389;-49
2021/03/23 13:10:06;;;;;;;4.10;2.40;;;12.80;64.10;;;;;;5051542;28;20036;-49
2021/03/23 13:12:32;;;;;;;4.47;2.25;;;12.30;64.10;;;;;;5054564;28;20167;-49
2021/03/23 13:14:58;;;;;;;3.13;2.00;;;12.20;65.90;;;;;;5054738;28;20484;-49
2021/03/23 13:17:25;;;;;;;4.15;2.25;;;11.80;66.20;;;;;;5019573;28;20029;-49
2021/03/23 13:19:51;;;;;;;4.40;2.35;;;12.00;77.80;;;;;;5036151;28;20041;-50
2021/03/23 13:22:24;;;;;;;7.25;2.78;;;12.10;77.90;;;;;;5054548;28;20037;-49
2021/03/23 13:24:52;;;;;;;3.72;2.30;;;12.60;80.40;;;;;;5054672;28;20353;-49
2021/03/23 13:27:31;;;;;;;4.93;2.33;;;12.50;93.20;;;;;;5002790;28;20044;-49
2021/03/23 13:30:00;;;;;;;5.18;2.85;;;12.50;91.70;;;;;;5049974;28;20158;-49
2021/03/23 13:32:27;;;;;;;4.00;2.60;;;12.40;95.00;;;;;;5011301;28;20040;-56
2021/03/23 13:34:54;;;;;;;4.70;2.53;;;12.60;90.50;;;;;;5043740;28;20516;-50
2021/03/23 13:37:22;;;;;;;4.45;2.58;;;12.30;92.10;;;;;;5036349;28;20032;-50